»·PEaware :: SWA572 KBOI-KSLC

SWA572 :: KBOI-KSLC

FLIGHT INFORMATION

Flight Status: Arrived
Operator:
Southwest Airlines
More flights by this operator :: More flights under this callsign
Pilot: Anonymous 8799 (8799)
Aircraft: BOEING 737-800
(B738)
More flights by this aircraft type
Origin: KBOI Boise Air Terminal/Gowen
United States
Destination: KSLC Salt Lake City Intl
United States
More flights between these airports :: More routes between these airports
Route: BOI3 ROARR BYI SKEES5
File this flight plan on PilotEdge
Remarks:
Altitude:
(Current/Filed)
31,000ft
Speed:
(Current/Filed)
450kts
Departed: 12-Sep-18 09:53 AM
Arrived: 12-Sep-18 10:42 AM
Distance/Time
Traveled:
252nm/0:49
Distance/Time
To Go:
Arrived

Flight Plot

Page will automatically refresh every two minutes.

Flight plan parsing failed; only flown route is shown


Map Options




Map Legend


Flown Route
Filed Route
Departure Airport
Arrival Airport
Navaid (VOR, NDB)
Fix

Horizontal Profiles

Position Reports

Time Latitude Longitude Heading Altitude Ground
Speed
12-Sep-18 09:34 43.567763 -116.219061 205 2879ft 0kts
12-Sep-18 09:35 43.567763 -116.219061 205 2879ft 0kts
12-Sep-18 09:36 43.567763 -116.219061 205 2879ft 0kts
12-Sep-18 09:37 43.567763 -116.219061 205 2879ft 0kts
12-Sep-18 09:38 43.567763 -116.219061 205 2879ft 0kts
12-Sep-18 09:39 43.567763 -116.219061 205 2879ft 0kts
12-Sep-18 09:40 43.567763 -116.219061 205 2879ft 0kts
12-Sep-18 09:41 43.567763 -116.219061 205 2879ft 0kts
12-Sep-18 09:42 43.567763 -116.219061 205 2879ft 0kts
12-Sep-18 09:43 43.567763 -116.219061 205 2879ft 0kts
12-Sep-18 09:44 43.567765 -116.219060 204 2879ft 0kts
12-Sep-18 09:45 43.567657 -116.218505 338 2879ft 1kts
12-Sep-18 09:46 43.567614 -116.218480 335 2879ft 0kts
12-Sep-18 09:47 43.567614 -116.218480 334 2879ft 0kts
12-Sep-18 09:48 43.567614 -116.218480 334 2879ft 0kts
12-Sep-18 09:49 43.567614 -116.218480 334 2879ft 0kts
12-Sep-18 09:50 43.567489 -116.217555 171 2879ft 12kts
12-Sep-18 09:51 43.564345 -116.216241 113 2879ft 14kts
12-Sep-18 09:52 43.561951 -116.209044 114 2879ft 25kts
12-Sep-18 09:53 43.559707 -116.202584 137 2879ft 2kts
12-Sep-18 09:54 43.559129 -116.202484 202 2879ft 6kts
12-Sep-18 09:55 43.565599 -116.223422 296 3202ft 158kts
12-Sep-18 09:56 43.588447 -116.290955 293 6086ft 239kts
12-Sep-18 09:57 43.587605 -116.384422 230 8649ft 274kts
12-Sep-18 09:58 43.513408 -116.398181 152 11522ft 324kts
12-Sep-18 09:59 43.464245 -116.293499 107 15018ft 360kts
12-Sep-18 10:00 43.439223 -116.156730 107 16678ft 373kts
12-Sep-18 10:01 43.413173 -116.015010 108 19520ft 397kts
12-Sep-18 10:02 43.385265 -115.864475 109 22315ft 418kts
12-Sep-18 10:03 43.355949 -115.707745 111 24852ft 436kts
12-Sep-18 10:04 43.324952 -115.543422 112 27188ft 453kts
12-Sep-18 10:05 43.291618 -115.374682 121 29363ft 458kts
12-Sep-18 10:06 43.229515 -115.231673 134 30951ft 449kts
12-Sep-18 10:07 43.159859 -115.083229 133 30955ft 474kts
12-Sep-18 10:08 43.088879 -114.931470 134 30966ft 472kts
12-Sep-18 10:09 43.018046 -114.780864 134 30967ft 474kts
12-Sep-18 10:10 42.946348 -114.629228 133 30968ft 477kts
12-Sep-18 10:11 42.875508 -114.480097 132 30984ft 480kts
12-Sep-18 10:12 42.803787 -114.329724 132 30974ft 479kts
12-Sep-18 10:13 42.731512 -114.178828 132 30971ft 477kts
12-Sep-18 10:14 42.658852 -114.027934 132 30966ft 478kts
12-Sep-18 10:15 42.585839 -113.877298 134 30966ft 477kts
12-Sep-18 10:16 42.496744 -113.751554 145 30966ft 461kts
12-Sep-18 10:17 42.405233 -113.630017 145 30966ft 461kts
12-Sep-18 10:18 42.313844 -113.508732 145 30966ft 462kts
12-Sep-18 10:19 42.222533 -113.387907 145 30968ft 462kts
12-Sep-18 10:20 42.133082 -113.269944 146 30955ft 457kts
12-Sep-18 10:21 42.042581 -113.151122 146 30955ft 455kts
12-Sep-18 10:22 41.951973 -113.032622 145 29814ft 455kts
12-Sep-18 10:23 41.868030 -112.923384 143 27268ft 462kts
12-Sep-18 10:24 41.782803 -112.812815 142 24638ft 455kts
12-Sep-18 10:25 41.693733 -112.697546 141 21917ft 439kts
12-Sep-18 10:26 41.607938 -112.586982 140 19307ft 423kts
12-Sep-18 10:27 41.524567 -112.480932 145 17016ft 402kts
12-Sep-18 10:28 41.430148 -112.403539 156 17002ft 400kts
12-Sep-18 10:29 41.335074 -112.337631 156 14738ft 386kts
12-Sep-18 10:30 41.241158 -112.271854 155 13111ft 381kts
12-Sep-18 10:31 41.149507 -112.202954 153 12468ft 382kts
12-Sep-18 10:32 41.056805 -112.140752 172 11900ft 366kts
12-Sep-18 10:33 40.958357 -112.120292 174 11329ft 353kts
12-Sep-18 10:34 40.866011 -112.103648 179 10999ft 356kts
12-Sep-18 10:35 40.775199 -112.093367 180 10795ft 297kts
12-Sep-18 10:36 40.696937 -112.069572 171 9602ft 271kts
12-Sep-18 10:37 40.628802 -112.045825 171 8058ft 250kts
12-Sep-18 10:38 40.591243 -111.982396 75 7011ft 228kts
12-Sep-18 10:39 40.632543 -111.955294 346 6981ft 177kts
12-Sep-18 10:40 40.681935 -111.962424 349 6636ft 168kts
12-Sep-18 10:41 40.723106 -111.967141 350 5256ft 136kts
12-Sep-18 10:42 40.757441 -111.971138 351 4604ft 121kts
12-Sep-18 10:43 40.788948 -111.974870 355 4235ft 72kts
12-Sep-18 10:44 40.791975 -111.977958 258 4235ft 5kts
12-Sep-18 10:45 40.789283 -111.978830 169 4235ft 2kts
12-Sep-18 10:46 40.789220 -111.978815 169 4235ft 0kts
12-Sep-18 10:47 40.789220 -111.978815 169 4235ft 0kts
12-Sep-18 10:54 40.789220 -111.978815 169 4235ft 0kts
12-Sep-18 10:55 40.789220 -111.978815 169 4235ft 0kts
12-Sep-18 10:56 40.789220 -111.978815 169 4235ft 0kts
12-Sep-18 10:57 40.789220 -111.978815 169 4235ft 0kts
12-Sep-18 10:58 40.789220 -111.978815 169 4235ft 0kts
12-Sep-18 10:59 40.789220 -111.978815 169 4235ft 0kts

Navigation Log

Ident Type
Flight plan parsing failed, navigation log unavailable